createdAt,value
2019-01-20T00:01:55.794Z,13.63
2019-01-20T00:04:26.609Z,13.20
2019-01-20T00:06:57.494Z,12.70
2019-01-20T00:09:28.251Z,13.33
2019-01-20T00:11:59.040Z,13.30
2019-01-20T00:14:29.932Z,13.90
2019-01-20T00:17:00.781Z,13.00
2019-01-20T00:19:31.626Z,14.40
2019-01-20T00:22:02.628Z,14.50
2019-01-20T00:24:33.400Z,13.57
2019-01-20T00:27:04.355Z,12.60
2019-01-20T00:29:35.253Z,14.07
2019-01-20T00:32:06.132Z,14.00
2019-01-20T00:34:36.956Z,14.07
2019-01-20T00:37:07.952Z,13.47
2019-01-20T00:39:38.797Z,12.90
2019-01-20T00:42:09.681Z,15.20
2019-01-20T00:44:40.508Z,13.50
2019-01-20T00:47:11.356Z,14.40
2019-01-20T00:49:42.273Z,15.40
2019-01-20T00:52:13.268Z,13.80
2019-01-20T00:54:44.152Z,14.27
2019-01-20T00:57:15.222Z,14.70
2019-01-20T00:59:46.001Z,14.07
2019-01-20T01:02:17.172Z,14.60
2019-01-20T01:04:48.120Z,13.10
2019-01-20T01:07:19.363Z,14.80
2019-01-20T01:09:50.373Z,12.97
2019-01-20T01:12:22.358Z,14.03
2019-01-20T01:14:53.202Z,14.00
2019-01-20T01:17:24.081Z,14.77
2019-01-20T01:19:54.979Z,13.10
2019-01-20T01:22:25.882Z,13.73
2019-01-20T01:24:56.645Z,13.87
2019-01-20T01:27:27.601Z,13.23
2019-01-20T01:29:58.637Z,12.40
2019-01-20T01:32:29.881Z,11.60
2019-01-20T01:35:00.676Z,12.27
2019-01-20T01:37:31.673Z,12.43
2019-01-20T01:40:02.557Z,12.57
2019-01-20T01:42:33.360Z,12.83
2019-01-20T01:45:05.024Z,11.57
2019-01-20T01:47:35.940Z,10.43
2019-01-20T01:50:07.543Z,11.00
2019-01-20T01:52:38.436Z,10.27
2019-01-20T01:55:10.239Z,10.77
2019-01-20T01:57:42.177Z,11.00
2019-01-20T02:00:16.403Z,11.30
2019-01-20T02:02:47.599Z,11.23
2019-01-20T02:05:19.614Z,9.87
2019-01-20T02:07:50.640Z,10.37
2019-01-20T02:10:22.861Z,9.67
2019-01-20T02:12:54.339Z,10.20
2019-01-20T02:15:25.218Z,10.37
2019-01-20T02:17:56.149Z,11.80
2019-01-20T02:20:27.131Z,11.03
2019-01-20T02:22:58.083Z,11.20
2019-01-20T02:25:28.983Z,10.53
2019-01-20T02:27:59.858Z,10.90
2019-01-20T02:30:31.467Z,11.90
2019-01-20T02:33:02.560Z,11.07
2019-01-20T02:35:33.472Z,9.90
2019-01-20T02:38:04.368Z,12.00
2019-01-20T02:40:35.208Z,10.30
2019-01-20T02:43:06.532Z,10.10
2019-01-20T02:45:37.335Z,10.00
2019-01-20T02:48:08.403Z,11.17
2019-01-20T02:50:40.231Z,10.53
2019-01-20T02:53:11.174Z,10.63
2019-01-20T02:55:42.089Z,10.47
2019-01-20T02:58:13.251Z,11.33
2019-01-20T03:00:44.189Z,11.70
2019-01-20T03:03:15.088Z,10.53
2019-01-20T03:05:46.990Z,11.80
2019-01-20T03:08:17.877Z,11.13
2019-01-20T03:10:48.628Z,9.90
2019-01-20T03:13:20.270Z,10.67
2019-01-20T03:15:51.163Z,11.80
2019-01-20T03:18:22.113Z,10.90
2019-01-20T03:20:52.906Z,10.70
2019-01-20T03:23:23.777Z,10.53
2019-01-20T03:25:54.705Z,12.40
2019-01-20T03:28:25.880Z,11.20
2019-01-20T03:30:56.656Z,11.00
2019-01-20T03:33:27.536Z,9.90
2019-01-20T03:35:58.422Z,9.23
2019-01-20T03:38:29.435Z,9.90
2019-01-20T03:41:00.335Z,9.30
2019-01-20T03:43:32.339Z,7.70
2019-01-20T03:46:03.304Z,9.03
2019-01-20T03:48:34.302Z,8.00
2019-01-20T03:51:05.183Z,8.90
2019-01-20T03:53:35.994Z,8.80
2019-01-20T03:56:06.951Z,8.30
2019-01-20T03:58:37.780Z,8.87
2019-01-20T04:01:08.665Z,8.87
2019-01-20T04:03:39.532Z,8.73
2019-01-20T04:06:10.399Z,9.53
2019-01-20T04:08:41.209Z,10.07
2019-01-20T04:11:12.093Z,8.53
2019-01-20T04:13:43.004Z,8.37
2019-01-20T04:16:13.785Z,9.70
2019-01-20T04:18:44.575Z,9.20
2019-01-20T04:21:15.419Z,8.37
2019-01-20T04:23:46.248Z,8.27
2019-01-20T04:26:17.127Z,7.93
2019-01-20T04:28:48.045Z,8.30
2019-01-20T04:31:18.870Z,7.47
2019-01-20T04:33:49.751Z,8.57
2019-01-20T04:36:20.683Z,8.27
2019-01-20T04:38:51.756Z,10.23
2019-01-20T04:41:22.529Z,9.90
2019-01-20T04:43:53.220Z,9.73
2019-01-20T04:46:23.991Z,9.47
2019-01-20T04:48:55.920Z,8.80
2019-01-20T04:51:26.685Z,9.43
2019-01-20T04:53:57.576Z,9.97
2019-01-20T04:56:28.458Z,8.67
2019-01-20T04:58:59.511Z,9.77
2019-01-20T05:01:30.495Z,9.63
2019-01-20T05:04:01.429Z,8.23
2019-01-20T05:06:32.315Z,9.23
2019-01-20T05:09:03.899Z,9.00
2019-01-20T05:11:34.707Z,9.50
2019-01-20T05:14:05.689Z,8.83
2019-01-20T05:16:36.527Z,8.10
2019-01-20T05:19:07.674Z,10.07
2019-01-20T05:21:38.479Z,10.53
2019-01-20T05:24:09.263Z,10.00
2019-01-20T05:26:40.035Z,9.83
2019-01-20T05:29:10.830Z,9.47
2019-01-20T05:31:41.739Z,9.37
2019-01-20T05:34:12.725Z,10.03
2019-01-20T05:36:43.518Z,11.17
2019-01-20T05:39:14.485Z,10.50
2019-01-20T05:41:45.357Z,10.20
2019-01-20T05:44:16.157Z,10.43
2019-01-20T05:46:47.132Z,10.67
2019-01-20T05:49:18.053Z,11.27
2019-01-20T05:51:48.940Z,10.77
2019-01-20T05:54:19.740Z,10.10
2019-01-20T05:56:50.483Z,10.73
2019-01-20T05:59:21.310Z,11.57
2019-01-20T06:01:52.054Z,11.87
2019-01-20T06:04:22.936Z,10.77
2019-01-20T06:06:53.860Z,11.80
2019-01-20T06:09:24.881Z,11.50
2019-01-20T06:11:55.843Z,11.40
2019-01-20T06:14:26.793Z,10.87
2019-01-20T06:16:57.577Z,10.23
2019-01-20T06:19:28.565Z,11.23
2019-01-20T06:21:59.488Z,11.40
2019-01-20T06:24:30.376Z,10.97
2019-01-20T06:27:01.159Z,10.20
2019-01-20T06:29:32.108Z,10.93
2019-01-20T06:32:03.077Z,11.67
2019-01-20T06:34:33.917Z,10.60
2019-01-20T06:37:04.917Z,10.07
2019-01-20T06:39:36.281Z,10.00
2019-01-20T06:42:07.168Z,10.70
2019-01-20T06:44:38.056Z,9.07
2019-01-20T06:47:08.994Z,11.30
2019-01-20T06:49:39.940Z,12.17
2019-01-20T06:52:10.828Z,10.87
2019-01-20T06:54:41.708Z,11.20
2019-01-20T06:57:12.593Z,12.30
2019-01-20T06:59:43.373Z,11.27
2019-01-20T07:02:14.305Z,11.13
2019-01-20T07:04:45.386Z,11.37
2019-01-20T07:07:16.284Z,12.03
2019-01-20T07:09:47.412Z,11.07
2019-01-20T07:12:18.131Z,13.87
2019-01-20T07:14:49.005Z,11.77
2019-01-20T07:17:19.838Z,12.13
2019-01-20T07:19:50.731Z,12.17
2019-01-20T07:22:21.510Z,11.13
2019-01-20T07:24:52.568Z,11.50
2019-01-20T07:27:23.458Z,11.80
2019-01-20T07:29:54.548Z,11.50
2019-01-20T07:32:25.473Z,11.53
2019-01-20T07:34:56.324Z,11.53
2019-01-20T07:37:27.113Z,10.90
2019-01-20T07:39:57.989Z,11.33
2019-01-20T07:42:28.877Z,11.40
2019-01-20T07:44:59.589Z,10.57
2019-01-20T07:47:30.480Z,11.40
2019-01-20T07:50:01.881Z,10.77
2019-01-20T07:52:32.633Z,11.67
2019-01-20T07:55:04.067Z,10.57
2019-01-20T07:57:34.920Z,10.53
2019-01-20T08:00:07.533Z,11.67
2019-01-20T08:02:38.354Z,12.50
2019-01-20T08:05:09.664Z,12.13
2019-01-20T08:07:40.512Z,13.00
2019-01-20T08:10:14.553Z,11.70
2019-01-20T08:12:45.365Z,11.90
2019-01-20T08:15:16.772Z,12.63
2019-01-20T08:17:47.655Z,14.13
2019-01-20T08:20:19.670Z,12.60
2019-01-20T08:22:50.552Z,12.17
2019-01-20T08:25:21.956Z,11.70
2019-01-20T08:27:52.838Z,11.77
2019-01-20T08:30:25.673Z,12.00
2019-01-20T08:32:56.593Z,12.03
2019-01-20T08:35:27.476Z,10.17
2019-01-20T08:37:58.337Z,11.77
2019-01-20T08:40:31.056Z,11.33
2019-01-20T08:43:02.193Z,13.13
2019-01-20T08:46:15.160Z,11.40
2019-01-20T08:48:45.954Z,10.30
2019-01-20T08:51:17.424Z,10.60
2019-01-20T08:53:48.243Z,11.83
2019-01-20T08:56:19.193Z,14.47
2019-01-20T08:58:50.013Z,12.10
2019-01-20T09:01:20.962Z,12.33
2019-01-20T09:03:51.856Z,12.13
2019-01-20T09:06:22.739Z,12.90
2019-01-20T09:08:53.678Z,14.10
2019-01-20T09:11:24.566Z,15.73
2019-01-20T09:13:55.545Z,18.37
2019-01-20T09:16:26.325Z,16.77
2019-01-20T09:18:57.608Z,20.53
2019-01-20T09:21:28.385Z,19.57
2019-01-20T09:23:58.860Z,23.67
2019-01-20T09:26:29.734Z,22.20
2019-01-20T09:29:00.566Z,21.07
2019-01-20T09:31:31.420Z,19.70
2019-01-20T09:34:02.203Z,24.73
2019-01-20T09:36:33.083Z,20.97
2019-01-20T09:39:07.365Z,21.07
2019-01-20T09:41:39.255Z,19.33
2019-01-20T09:44:10.147Z,21.23
2019-01-20T09:46:41.131Z,20.33
2019-01-20T09:49:12.061Z,18.97
2019-01-20T09:51:42.944Z,21.17
2019-01-20T09:54:13.701Z,20.30
2019-01-20T09:56:44.772Z,19.70
2019-01-20T09:59:15.576Z,19.10
2019-01-20T10:01:46.402Z,18.70
2019-01-20T10:04:17.185Z,20.20
2019-01-20T10:06:48.571Z,20.93
2019-01-20T10:09:19.333Z,20.23
2019-01-20T10:11:50.213Z,21.23
2019-01-20T10:14:21.143Z,22.17
2019-01-20T10:16:53.030Z,21.40
2019-01-20T10:19:23.939Z,22.53
2019-01-20T10:21:54.819Z,21.70
2019-01-20T10:24:25.678Z,22.27
2019-01-20T10:26:56.602Z,23.07
2019-01-20T10:29:27.353Z,21.80
2019-01-20T10:31:58.327Z,23.93
2019-01-20T10:34:30.982Z,22.80
2019-01-20T10:37:02.640Z,23.53
2019-01-20T10:39:33.464Z,21.10
2019-01-20T10:42:04.439Z,21.17
2019-01-20T10:44:35.236Z,22.53
2019-01-20T10:47:06.151Z,23.40
2019-01-20T10:49:37.017Z,22.30
2019-01-20T10:52:07.816Z,20.50
2019-01-20T10:54:38.515Z,23.17
2019-01-20T10:57:09.502Z,24.73
2019-01-20T10:59:40.391Z,32.13
2019-01-20T11:02:11.076Z,33.70
2019-01-20T11:04:41.873Z,26.20
2019-01-20T11:07:12.921Z,25.97
2019-01-20T11:09:43.735Z,24.37
2019-01-20T11:12:14.623Z,23.27
2019-01-20T11:14:45.483Z,30.30
2019-01-20T11:17:16.264Z,33.07
2019-01-20T11:19:47.149Z,31.73
2019-01-20T11:22:18.031Z,26.70
2019-01-20T11:24:48.824Z,24.97
2019-01-20T11:27:19.497Z,24.17
2019-01-20T11:29:50.329Z,20.73
2019-01-20T11:32:21.271Z,34.60
2019-01-20T11:34:52.168Z,24.13
2019-01-20T11:37:23.052Z,22.80
2019-01-20T11:39:53.849Z,23.13
2019-01-20T11:42:25.044Z,26.07
2019-01-20T11:44:56.024Z,22.70
2019-01-20T11:47:26.904Z,23.70
2019-01-20T11:49:57.799Z,20.93
2019-01-20T11:52:28.928Z,23.07
2019-01-20T11:54:59.711Z,21.87
2019-01-20T11:57:30.888Z,22.80
2019-01-20T12:00:01.555Z,21.30
2019-01-20T12:02:32.356Z,25.30
2019-01-20T12:05:03.130Z,23.20
2019-01-20T12:07:34.079Z,20.73
2019-01-20T12:10:05.825Z,20.10
2019-01-20T12:12:37.074Z,21.40
2019-01-20T12:15:09.927Z,21.43
2019-01-20T12:17:41.694Z,20.07
2019-01-20T12:20:12.825Z,21.63
2019-01-20T12:22:44.040Z,20.90
2019-01-20T12:25:15.865Z,23.57
2019-01-20T12:27:46.849Z,20.30
2019-01-20T12:30:20.409Z,22.53
2019-01-20T12:32:51.412Z,21.57
2019-01-20T12:35:22.313Z,20.23
2019-01-20T12:37:53.259Z,19.53
2019-01-20T12:40:29.622Z,17.37
2019-01-20T12:43:01.624Z,20.93
2019-01-20T12:45:33.679Z,27.90
2019-01-20T12:48:05.139Z,23.47
2019-01-20T12:50:36.037Z,20.90
2019-01-20T12:53:06.773Z,22.90
2019-01-20T12:55:37.873Z,19.90
2019-01-20T12:58:08.887Z,21.73
2019-01-20T13:00:39.789Z,20.27
2019-01-20T13:03:11.121Z,20.17
2019-01-20T13:05:41.868Z,20.67
2019-01-20T13:08:12.715Z,20.50
2019-01-20T13:10:43.603Z,19.97
2019-01-20T13:13:14.432Z,16.57
2019-01-20T13:15:45.276Z,17.00
2019-01-20T13:18:17.867Z,22.20
2019-01-20T13:20:48.876Z,17.20
2019-01-20T13:23:19.702Z,18.77
2019-01-20T13:25:50.474Z,29.17
2019-01-20T13:28:21.299Z,20.20
2019-01-20T13:30:52.206Z,23.87
2019-01-20T13:33:23.211Z,20.07
2019-01-20T13:35:54.015Z,23.10
2019-01-20T13:38:25.941Z,17.93
2019-01-20T13:41:02.452Z,21.07
2019-01-20T13:43:33.987Z,19.77
2019-01-20T13:46:04.946Z,20.57
2019-01-20T13:48:35.824Z,21.70
2019-01-20T13:51:06.544Z,24.00
2019-01-20T13:53:38.394Z,22.50
2019-01-20T13:56:09.407Z,26.67
2019-01-20T13:58:40.986Z,32.53
2019-01-20T14:01:11.941Z,30.67
2019-01-20T14:03:42.805Z,26.20
2019-01-20T14:06:13.611Z,23.53
2019-01-20T14:08:44.602Z,23.83
2019-01-20T14:11:15.351Z,22.70
2019-01-20T14:13:46.318Z,24.37
2019-01-20T14:16:17.053Z,21.20
2019-01-20T14:18:47.929Z,27.67
2019-01-20T14:21:18.703Z,24.97
2019-01-20T14:23:49.784Z,28.73
2019-01-20T14:26:20.611Z,26.20
2019-01-20T14:28:51.766Z,19.67
2019-01-20T14:31:22.913Z,23.50
2019-01-20T14:33:53.851Z,23.90
2019-01-20T14:36:24.746Z,18.17
2019-01-20T14:38:55.603Z,20.70
2019-01-20T14:41:26.414Z,18.07
2019-01-20T14:43:58.307Z,16.33
2019-01-20T14:46:29.203Z,20.03
2019-01-20T14:49:00.090Z,17.17
2019-01-20T14:51:31.020Z,18.17
2019-01-20T14:54:01.882Z,19.20
2019-01-20T14:56:32.587Z,18.97
2019-01-20T14:59:03.602Z,21.47
2019-01-20T15:01:34.469Z,20.17
2019-01-20T15:04:05.912Z,20.10
2019-01-20T15:06:36.719Z,18.03
2019-01-20T15:09:09.267Z,17.83
2019-01-20T15:11:40.476Z,19.80
2019-01-20T15:14:11.725Z,18.83
2019-01-20T15:16:42.778Z,18.30
2019-01-20T15:19:15.167Z,18.27
2019-01-20T15:21:45.974Z,18.80
2019-01-20T15:24:17.128Z,23.60
2019-01-20T15:26:47.652Z,18.57
2019-01-20T15:29:18.929Z,17.50
2019-01-20T15:31:49.794Z,17.57
2019-01-20T15:34:20.595Z,18.33
2019-01-20T15:36:51.465Z,19.87
2019-01-20T15:39:22.379Z,19.00
2019-01-20T15:41:53.276Z,18.50
2019-01-20T15:44:24.232Z,16.33
2019-01-20T15:46:55.226Z,16.30
2019-01-20T15:49:26.103Z,16.90
2019-01-20T15:51:58.184Z,16.30
2019-01-20T15:54:29.044Z,16.90
2019-01-20T15:56:59.931Z,15.77
2019-01-20T15:59:30.983Z,17.57
2019-01-20T16:02:01.827Z,18.47
2019-01-20T16:04:32.753Z,16.40
2019-01-20T16:07:03.248Z,14.63
2019-01-20T16:09:34.103Z,17.50
2019-01-20T16:12:04.912Z,17.07
2019-01-20T16:14:35.828Z,16.90
2019-01-20T16:17:06.625Z,16.87
2019-01-20T16:19:37.569Z,16.17
2019-01-20T16:22:08.394Z,16.33
2019-01-20T16:24:39.240Z,18.97
2019-01-20T16:27:10.104Z,17.30
2019-01-20T16:29:40.916Z,17.93
2019-01-20T16:32:11.406Z,19.60
2019-01-20T16:34:42.179Z,18.30
2019-01-20T16:37:13.072Z,19.20
2019-01-20T16:39:45.731Z,17.40
2019-01-20T16:42:16.522Z,19.93
2019-01-20T16:44:48.327Z,20.23
2019-01-20T16:47:19.221Z,18.60
2019-01-20T16:49:50.106Z,20.63
2019-01-20T16:52:20.957Z,21.83
2019-01-20T16:54:51.972Z,19.20
2019-01-20T16:57:22.661Z,21.63
2019-01-20T16:59:53.511Z,20.93
2019-01-20T17:02:24.688Z,19.93
2019-01-20T17:04:56.720Z,23.87
2019-01-20T17:07:27.220Z,24.63
2019-01-20T17:09:58.016Z,24.87
2019-01-20T17:12:28.913Z,25.00
2019-01-20T17:15:00.495Z,25.10
2019-01-20T17:17:31.369Z,23.47
2019-01-20T17:20:02.288Z,26.80
2019-01-20T17:22:33.074Z,26.13
2019-01-20T17:25:04.601Z,24.27
2019-01-20T17:27:35.466Z,26.97
2019-01-20T17:30:09.051Z,23.37
2019-01-20T17:32:39.666Z,23.67
2019-01-20T17:35:10.691Z,20.87
2019-01-20T17:37:41.576Z,20.93
2019-01-20T17:40:15.266Z,20.30
2019-01-20T17:42:46.111Z,20.67
2019-01-20T17:45:25.661Z,20.50
2019-01-20T17:47:56.513Z,19.03
2019-01-20T17:50:29.692Z,18.80
2019-01-20T17:53:00.789Z,20.80
2019-01-20T17:55:31.890Z,20.47
2019-01-20T17:58:02.596Z,20.37
2019-01-20T18:00:39.392Z,21.43
2019-01-20T18:03:10.832Z,22.33
2019-01-20T18:05:42.195Z,22.63
2019-01-20T18:08:13.086Z,22.17
2019-01-20T18:10:44.034Z,23.50
2019-01-20T18:13:19.133Z,22.60
2019-01-20T18:15:54.754Z,24.20
2019-01-20T18:18:24.034Z,20.20
2019-01-20T18:20:55.593Z,22.40
2019-01-20T18:23:26.396Z,20.37
2019-01-20T18:25:57.245Z,21.33
2019-01-20T18:28:27.820Z,25.37
2019-01-20T18:30:58.772Z,21.03
2019-01-20T18:33:29.573Z,26.03
2019-01-20T18:36:00.632Z,29.67
2019-01-20T18:38:31.545Z,23.20
2019-01-20T18:41:02.429Z,21.87
2019-01-20T18:43:33.190Z,23.60
2019-01-20T18:46:04.353Z,21.97
2019-01-20T18:48:35.270Z,22.90
2019-01-20T18:51:06.188Z,27.47
2019-01-20T18:53:36.973Z,26.93
2019-01-20T18:56:08.209Z,23.60
2019-01-20T18:58:39.027Z,30.50
2019-01-20T19:01:11.029Z,24.67
2019-01-20T19:03:41.860Z,23.07
2019-01-20T19:06:12.828Z,24.27
2019-01-20T19:08:43.602Z,24.60
2019-01-20T19:11:14.502Z,25.47
2019-01-20T19:13:45.301Z,24.07
2019-01-20T19:16:16.293Z,25.70
2019-01-20T19:18:47.177Z,25.77
2019-01-20T19:21:19.036Z,27.00
2019-01-20T19:23:49.845Z,24.80
2019-01-20T19:26:20.641Z,24.53
2019-01-20T19:28:51.409Z,25.20
2019-01-20T19:31:22.619Z,26.53
2019-01-20T19:33:55.199Z,25.60
2019-01-20T19:36:28.146Z,24.10
2019-01-20T19:38:58.837Z,23.27
2019-01-20T19:41:29.912Z,25.03
2019-01-20T19:44:01.219Z,25.90
2019-01-20T19:46:32.109Z,25.93
2019-01-20T19:49:04.713Z,26.10
2019-01-20T19:51:35.689Z,25.70
2019-01-20T19:54:06.720Z,25.00
2019-01-20T19:56:37.621Z,25.77
2019-01-20T19:59:08.545Z,27.90
2019-01-20T20:01:39.505Z,23.50
2019-01-20T20:04:10.392Z,24.80
2019-01-20T20:06:41.347Z,24.87
2019-01-20T20:09:14.962Z,24.10
2019-01-20T20:11:45.917Z,31.00
2019-01-20T20:14:17.686Z,27.57
2019-01-20T20:16:48.593Z,23.03
2019-01-20T20:19:19.308Z,26.37
2019-01-20T20:21:50.376Z,24.80
2019-01-20T20:24:25.361Z,25.03
2019-01-20T20:26:53.935Z,26.67
2019-01-20T20:29:24.824Z,24.03
2019-01-20T20:31:55.792Z,23.97
2019-01-20T20:34:26.578Z,25.50
2019-01-20T20:36:57.561Z,22.60
2019-01-20T20:39:28.382Z,25.40
2019-01-20T20:41:59.379Z,24.87
2019-01-20T20:44:30.250Z,23.10
2019-01-20T20:47:01.840Z,23.00
2019-01-20T20:49:32.716Z,24.27
2019-01-20T20:52:03.853Z,24.70
2019-01-20T20:55:49.479Z,22.63
2019-01-20T20:57:07.539Z,21.60
2019-01-20T20:59:38.324Z,23.00
2019-01-20T21:02:09.481Z,24.37
2019-01-20T21:04:40.299Z,23.00
2019-01-20T21:07:11.176Z,23.07
2019-01-20T21:09:42.098Z,21.53
2019-01-20T21:12:13.088Z,20.60
2019-01-20T21:14:43.947Z,23.07
2019-01-20T21:17:15.048Z,22.50
2019-01-20T21:19:46.175Z,23.30
2019-01-20T21:22:17.009Z,23.20
2019-01-20T21:24:47.730Z,21.03
2019-01-20T21:27:18.767Z,23.60
2019-01-20T21:29:49.609Z,24.07
2019-01-20T21:32:20.469Z,24.57
2019-01-20T21:34:51.250Z,25.03
2019-01-20T21:37:22.425Z,23.00
2019-01-20T21:39:53.369Z,23.37
2019-01-20T21:42:24.241Z,24.87
2019-01-20T21:44:55.135Z,20.37
2019-01-20T21:47:26.128Z,21.67
2019-01-20T21:49:57.050Z,22.50
2019-01-20T21:52:28.254Z,22.50
2019-01-20T21:54:59.096Z,20.20
2019-01-20T21:57:29.681Z,21.50
2019-01-20T22:00:00.565Z,20.93
2019-01-20T22:02:32.123Z,19.50
2019-01-20T22:05:02.924Z,21.67
2019-01-20T22:07:34.205Z,22.47
2019-01-20T22:10:05.730Z,21.40
2019-01-20T22:12:36.604Z,21.60
2019-01-20T22:15:07.703Z,19.93
2019-01-20T22:17:38.856Z,22.07
2019-01-20T22:20:12.506Z,21.60
2019-01-20T22:22:43.820Z,23.30
2019-01-20T22:25:14.969Z,21.07
2019-01-20T22:27:46.013Z,22.33
2019-01-20T22:30:18.869Z,21.97
2019-01-20T22:32:49.876Z,22.03
2019-01-20T22:35:20.777Z,21.43
2019-01-20T22:37:51.819Z,21.70
2019-01-20T22:40:22.713Z,22.43
2019-01-20T22:42:53.602Z,21.80
2019-01-20T22:45:28.585Z,23.40
2019-01-20T22:47:59.757Z,23.30
2019-01-20T22:50:30.738Z,22.60
2019-01-20T22:53:01.652Z,21.00
2019-01-20T22:55:32.441Z,19.20
2019-01-20T22:58:03.422Z,22.93
2019-01-20T23:00:51.027Z,22.03
2019-01-20T23:03:22.372Z,20.33
2019-01-20T23:05:54.924Z,20.90
2019-01-20T23:08:25.946Z,20.93
2019-01-20T23:10:56.744Z,21.33
2019-01-20T23:13:27.530Z,21.07
2019-01-20T23:15:58.315Z,22.23
2019-01-20T23:18:29.979Z,20.73
2019-01-20T23:21:00.869Z,19.77
2019-01-20T23:23:31.789Z,19.60
2019-01-20T23:26:02.699Z,24.20
2019-01-20T23:28:33.565Z,22.43
2019-01-20T23:31:04.726Z,22.23
2019-01-20T23:33:35.850Z,22.50
2019-01-20T23:36:06.818Z,20.80
2019-01-20T23:38:37.599Z,22.00
2019-01-20T23:41:08.485Z,22.30
2019-01-20T23:43:39.180Z,23.97
2019-01-20T23:46:09.994Z,22.50
2019-01-20T23:48:40.876Z,23.80
2019-01-20T23:51:11.771Z,22.10
2019-01-20T23:53:42.704Z,22.50
2019-01-20T23:56:13.537Z,23.07
2019-01-20T23:58:44.401Z,24.47
